createdAt,value
2022-09-27T00:00:11.542Z,1.30
2022-09-27T00:03:14.685Z,0.90
2022-09-27T00:06:21.637Z,1.10
2022-09-27T00:09:24.509Z,1.27
2022-09-27T00:12:28.790Z,0.80
2022-09-27T00:15:31.674Z,1.50
2022-09-27T00:18:36.165Z,1.40
2022-09-27T00:21:39.351Z,1.20
2022-09-27T00:24:42.406Z,1.17
2022-09-27T00:27:46.650Z,1.30
2022-09-27T00:30:49.668Z,0.80
2022-09-27T00:33:54.998Z,0.97
2022-09-27T00:36:58.153Z,1.10
2022-09-27T00:40:01.006Z,1.07
2022-09-27T00:43:14.627Z,1.07
2022-09-27T00:46:24.464Z,1.03
2022-09-27T00:49:31.873Z,0.83
2022-09-27T00:52:42.951Z,0.80
2022-09-27T00:55:51.777Z,1.30
2022-09-27T00:59:00.497Z,1.10
2022-09-27T01:02:06.248Z,1.33
2022-09-27T01:05:11.858Z,0.97
2022-09-27T01:08:14.709Z,1.53
2022-09-27T01:11:26.854Z,1.20
2022-09-27T01:14:50.238Z,1.20
2022-09-27T01:18:05.483Z,1.10
2022-09-27T01:21:41.645Z,0.90
2022-09-27T01:25:09.607Z,1.27
2022-09-27T01:28:24.486Z,1.23
2022-09-27T01:31:35.381Z,1.20
2022-09-27T01:34:45.719Z,1.17
2022-09-27T01:37:56.014Z,0.83
2022-09-27T01:41:07.461Z,1.40
2022-09-27T01:44:14.335Z,1.23
2022-09-27T01:47:22.657Z,1.30
2022-09-27T01:50:32.441Z,1.13
2022-09-27T01:53:38.313Z,1.20
2022-09-27T01:56:45.710Z,0.90
2022-09-27T01:59:54.442Z,1.23
2022-09-27T02:03:02.703Z,1.27
2022-09-27T02:06:12.956Z,1.10
2022-09-27T02:09:19.611Z,1.00
2022-09-27T02:12:27.482Z,1.60
2022-09-27T02:15:36.919Z,1.33
2022-09-27T02:18:51.071Z,1.70
2022-09-27T02:22:00.933Z,1.73
2022-09-27T02:25:11.790Z,1.30
2022-09-27T02:28:24.133Z,1.10
2022-09-27T02:31:27.317Z,1.20
2022-09-27T02:34:33.581Z,1.00
2022-09-27T02:37:36.444Z,1.07
2022-09-27T02:40:45.356Z,1.50
2022-09-27T02:43:51.400Z,1.47
2022-09-27T02:47:08.984Z,1.90
2022-09-27T02:50:30.031Z,1.60
2022-09-27T02:53:42.640Z,1.20
2022-09-27T02:56:55.622Z,1.60
2022-09-27T03:00:06.675Z,1.60
2022-09-27T03:03:14.437Z,1.57
2022-09-27T03:06:21.625Z,1.23
2022-09-27T03:09:29.106Z,1.50
2022-09-27T03:12:32.069Z,1.40
2022-09-27T03:15:34.978Z,1.60
2022-09-27T03:18:37.776Z,1.30
2022-09-27T03:21:42.028Z,1.43
2022-09-27T03:24:44.973Z,1.77
2022-09-27T03:27:47.837Z,1.57
2022-09-27T03:30:50.858Z,1.27
2022-09-27T03:33:53.727Z,1.80
2022-09-27T03:36:58.114Z,1.23
2022-09-27T03:40:00.965Z,1.50
2022-09-27T03:43:04.187Z,1.50
2022-09-27T03:46:07.329Z,1.47
2022-09-27T03:49:10.540Z,1.63
2022-09-27T03:52:15.148Z,1.43
2022-09-27T03:55:18.077Z,2.50
2022-09-27T03:58:21.154Z,4.20
2022-09-27T04:01:24.183Z,1.77
2022-09-27T04:04:27.014Z,1.23
2022-09-27T04:07:31.426Z,1.00
2022-09-27T04:10:34.441Z,1.50
2022-09-27T04:13:37.394Z,1.10
2022-09-27T04:16:41.222Z,1.20
2022-09-27T04:19:44.097Z,1.27
2022-09-27T04:22:48.540Z,1.47
2022-09-27T04:25:51.405Z,1.30
2022-09-27T04:28:55.070Z,0.90
2022-09-27T04:31:57.977Z,1.60
2022-09-27T04:35:18.129Z,2.20
2022-09-27T04:38:24.166Z,2.17
2022-09-27T04:41:28.737Z,1.33
2022-09-27T04:44:31.548Z,0.83
2022-09-27T04:47:34.820Z,1.20
2022-09-27T04:50:37.915Z,0.83
2022-09-27T04:53:42.088Z,0.80
2022-09-27T04:56:44.948Z,0.90
2022-09-27T04:59:47.798Z,5.53
2022-09-27T05:02:50.948Z,1.73
2022-09-27T05:05:54.122Z,0.90
2022-09-27T05:08:58.976Z,1.70
2022-09-27T05:12:02.617Z,2.20
2022-09-27T05:15:06.585Z,1.00
2022-09-27T05:18:10.792Z,2.70
2022-09-27T05:21:13.763Z,5.10
2022-09-27T05:24:18.391Z,2.23
2022-09-27T05:27:21.376Z,0.97
2022-09-27T05:30:24.259Z,1.07
2022-09-27T05:33:27.074Z,1.20
2022-09-27T05:36:30.937Z,1.20
2022-09-27T05:39:35.255Z,1.33
2022-09-27T05:42:40.014Z,1.53
2022-09-27T05:45:43.035Z,1.93
2022-09-27T05:48:45.879Z,1.23
2022-09-27T05:51:48.705Z,1.10
2022-09-27T05:54:53.057Z,1.10
2022-09-27T05:57:57.586Z,1.47
2022-09-27T06:01:00.480Z,0.90
2022-09-27T06:04:04.761Z,1.00
2022-09-27T06:07:07.583Z,1.10
2022-09-27T06:10:11.878Z,2.17
2022-09-27T06:13:17.924Z,1.10
2022-09-27T06:16:20.921Z,0.40
2022-09-27T06:19:23.766Z,0.67
2022-09-27T06:22:26.742Z,0.53
2022-09-27T06:25:30.913Z,0.50
2022-09-27T06:28:35.035Z,0.40
2022-09-27T06:31:37.877Z,0.60
2022-09-27T06:34:41.666Z,0.50
2022-09-27T06:37:44.515Z,0.60
2022-09-27T06:40:49.047Z,0.70
2022-09-27T06:43:52.093Z,0.43
2022-09-27T06:46:55.331Z,0.50
2022-09-27T06:49:58.136Z,0.53
2022-09-27T06:53:01.275Z,0.73
2022-09-27T06:56:05.569Z,0.60
2022-09-27T06:59:26.151Z,0.70
2022-09-27T07:02:29.150Z,0.60
2022-09-27T07:05:32.658Z,0.47
2022-09-27T07:08:35.963Z,0.77
2022-09-27T07:11:41.479Z,0.63
2022-09-27T07:14:44.292Z,0.60
2022-09-27T07:17:47.228Z,0.40
2022-09-27T07:20:50.891Z,0.50
2022-09-27T07:23:54.008Z,0.60
2022-09-27T07:26:58.197Z,1.07
2022-09-27T07:30:01.026Z,0.50
2022-09-27T07:33:06.379Z,0.70
2022-09-27T07:36:10.522Z,0.47
2022-09-27T07:39:13.425Z,0.60
2022-09-27T07:42:17.691Z,0.60
2022-09-27T07:45:20.602Z,0.53
2022-09-27T07:48:23.426Z,0.50
2022-09-27T07:51:26.500Z,0.40
2022-09-27T07:54:29.381Z,0.60
2022-09-27T07:57:34.361Z,0.40
2022-09-27T08:00:38.289Z,0.40
2022-09-27T08:03:41.364Z,0.40
2022-09-27T08:06:44.198Z,0.20
2022-09-27T08:09:47.220Z,0.20
2022-09-27T08:12:51.451Z,0.20
2022-09-27T08:15:54.344Z,0.17
2022-09-27T08:18:57.418Z,0.20
2022-09-27T08:22:00.293Z,0.30
2022-09-27T08:25:03.093Z,0.30
2022-09-27T08:28:07.355Z,0.20
2022-09-27T08:31:10.529Z,0.20
2022-09-27T08:34:13.605Z,0.27
2022-09-27T08:37:16.417Z,0.20
2022-09-27T08:40:24.024Z,0.20
2022-09-27T08:43:37.757Z,0.20
2022-09-27T08:46:53.889Z,0.30
2022-09-27T08:50:03.522Z,0.33
2022-09-27T08:53:18.820Z,0.30
2022-09-27T08:56:22.585Z,0.30
2022-09-27T08:59:30.609Z,0.30
2022-09-27T09:02:33.749Z,0.20
2022-09-27T09:05:38.015Z,0.30
2022-09-27T09:08:52.147Z,0.30
2022-09-27T09:12:20.859Z,0.20
2022-09-27T09:15:54.181Z,0.30
2022-09-27T09:19:17.713Z,0.20
2022-09-27T09:22:38.824Z,0.50
2022-09-27T09:25:53.162Z,0.17
2022-09-27T09:29:08.163Z,0.23
2022-09-27T09:32:27.614Z,0.40
2022-09-27T09:35:37.440Z,0.30
2022-09-27T09:38:44.739Z,0.27
2022-09-27T09:42:02.030Z,0.30
2022-09-27T09:45:11.118Z,0.20
2022-09-27T09:48:23.356Z,0.50
2022-09-27T09:51:36.856Z,0.30
2022-09-27T09:54:44.162Z,0.20
2022-09-27T09:57:58.915Z,0.20
2022-09-27T10:01:14.413Z,0.20
2022-09-27T10:04:21.790Z,0.30
2022-09-27T10:07:26.055Z,0.20
2022-09-27T10:10:29.042Z,0.43
2022-09-27T10:13:34.901Z,0.10
2022-09-27T10:16:38.670Z,0.30
2022-09-27T10:19:43.680Z,0.10
2022-09-27T10:22:50.148Z,0.20
2022-09-27T10:25:55.508Z,0.30
2022-09-27T10:28:58.606Z,0.30
2022-09-27T10:32:05.308Z,0.30
2022-09-27T10:35:24.050Z,0.43
2022-09-27T10:38:29.591Z,0.40
2022-09-27T10:41:35.050Z,0.27
2022-09-27T10:44:37.942Z,0.17
2022-09-27T10:47:41.196Z,0.30
2022-09-27T10:50:59.415Z,0.20
2022-09-27T10:54:02.502Z,0.40
2022-09-27T10:57:07.862Z,0.40
2022-09-27T11:00:23.721Z,0.30
2022-09-27T11:03:29.084Z,0.30
2022-09-27T11:06:38.014Z,0.40
2022-09-27T11:09:49.813Z,0.40
2022-09-27T11:13:14.291Z,0.37
2022-09-27T11:16:27.204Z,0.70
2022-09-27T11:19:47.555Z,0.53
2022-09-27T11:23:11.135Z,0.50
2022-09-27T11:26:27.396Z,0.47
2022-09-27T11:29:39.023Z,0.40
2022-09-27T11:33:06.644Z,0.40
2022-09-27T11:36:18.050Z,0.40
2022-09-27T11:39:27.216Z,0.50
2022-09-27T11:42:53.223Z,0.30
2022-09-27T11:46:26.576Z,0.50
2022-09-27T11:49:44.265Z,0.30
2022-09-27T11:52:58.365Z,0.30
2022-09-27T11:56:09.810Z,0.30
2022-09-27T11:59:53.625Z,0.40
2022-09-27T12:03:37.137Z,0.47
2022-09-27T12:06:50.041Z,0.30
2022-09-27T12:09:58.207Z,0.23
2022-09-27T12:13:03.096Z,0.40
2022-09-27T12:16:07.153Z,0.30
2022-09-27T12:19:18.187Z,0.40
2022-09-27T12:22:46.629Z,0.43
2022-09-27T12:25:52.771Z,0.40
2022-09-27T12:29:00.578Z,0.37
2022-09-27T12:32:09.933Z,0.40
2022-09-27T12:35:20.029Z,0.20
2022-09-27T12:38:28.568Z,1.27
2022-09-27T12:41:37.616Z,0.60
2022-09-27T12:44:45.915Z,0.60
2022-09-27T12:48:02.950Z,0.83
2022-09-27T12:51:10.231Z,0.60
2022-09-27T12:54:41.121Z,0.67
2022-09-27T12:57:52.748Z,0.50
2022-09-27T13:01:02.064Z,0.50
2022-09-27T13:04:25.349Z,0.80
2022-09-27T13:07:43.111Z,0.60
2022-09-27T13:10:55.864Z,0.70
2022-09-27T13:14:00.920Z,0.87
2022-09-27T13:17:05.084Z,0.50
2022-09-27T13:20:52.665Z,0.70
2022-09-27T13:23:55.611Z,0.40
2022-09-27T13:27:01.029Z,0.40
2022-09-27T13:30:48.416Z,0.40
2022-09-27T13:33:53.971Z,0.40
2022-09-27T13:36:57.399Z,0.30
2022-09-27T13:40:21.756Z,0.20
2022-09-27T13:43:54.138Z,0.13
2022-09-27T13:46:59.698Z,0.30
2022-09-27T13:50:20.977Z,0.30
2022-09-27T13:53:29.002Z,0.30
2022-09-27T13:56:51.916Z,0.20
2022-09-27T13:59:58.725Z,0.47
2022-09-27T14:03:05.516Z,0.40
2022-09-27T14:06:14.718Z,0.30
2022-09-27T14:09:21.655Z,0.50
2022-09-27T14:12:29.177Z,0.40
2022-09-27T14:15:33.216Z,0.50
2022-09-27T14:18:37.792Z,0.30
2022-09-27T14:21:42.597Z,0.30
2022-09-27T14:24:47.970Z,0.30
2022-09-27T14:27:50.889Z,0.40
2022-09-27T14:31:08.067Z,0.40
2022-09-27T14:34:14.234Z,0.30
2022-09-27T14:37:25.935Z,0.33
2022-09-27T14:40:29.942Z,0.30
2022-09-27T14:43:33.153Z,0.40
2022-09-27T14:46:36.056Z,0.37
2022-09-27T14:49:48.220Z,0.17
2022-09-27T14:52:55.486Z,0.30
2022-09-27T14:55:59.099Z,0.30
2022-09-27T14:59:05.820Z,0.20
2022-09-27T15:02:20.071Z,0.50
2022-09-27T15:05:25.405Z,0.30
2022-09-27T15:08:33.983Z,0.40
2022-09-27T15:11:37.275Z,0.50
2022-09-27T15:14:44.767Z,0.33
2022-09-27T15:17:48.084Z,0.77
2022-09-27T15:20:54.907Z,0.43
2022-09-27T15:23:59.836Z,0.53
2022-09-27T15:27:02.881Z,0.50
2022-09-27T15:30:07.214Z,0.60
2022-09-27T15:33:21.400Z,0.50
2022-09-27T15:36:52.287Z,0.60
2022-09-27T15:39:58.522Z,0.77
2022-09-27T15:43:02.712Z,0.83
2022-09-27T15:46:25.834Z,0.50
2022-09-27T15:49:34.557Z,0.50
2022-09-27T15:52:45.618Z,1.00
2022-09-27T15:55:49.897Z,0.80
2022-09-27T15:58:53.724Z,0.57
2022-09-27T16:01:58.542Z,0.77
2022-09-27T16:05:01.663Z,0.70
2022-09-27T16:08:04.913Z,0.60
2022-09-27T16:11:14.749Z,0.87
2022-09-27T16:14:18.667Z,0.77
2022-09-27T16:17:21.646Z,0.83
2022-09-27T16:20:27.204Z,0.70
2022-09-27T16:23:30.020Z,0.80
2022-09-27T16:26:34.699Z,0.90
2022-09-27T16:29:40.088Z,1.10
2022-09-27T16:32:46.897Z,1.33
2022-09-27T16:35:50.240Z,1.20
2022-09-27T16:38:55.629Z,1.40
2022-09-27T16:42:00.056Z,1.17
2022-09-27T16:45:07.392Z,0.90
2022-09-27T16:48:13.178Z,1.00
2022-09-27T16:51:37.508Z,1.30
2022-09-27T16:54:41.103Z,1.60
2022-09-27T16:57:46.031Z,1.30
2022-09-27T17:00:49.269Z,1.80
2022-09-27T17:03:56.864Z,1.97
2022-09-27T17:07:00.837Z,1.40
2022-09-27T17:10:03.927Z,1.60
2022-09-27T17:13:08.114Z,1.30
2022-09-27T17:16:11.928Z,1.57
2022-09-27T17:19:14.896Z,1.23
2022-09-27T17:22:18.047Z,1.07
2022-09-27T17:25:21.068Z,0.80
2022-09-27T17:28:25.295Z,1.00
2022-09-27T17:31:31.428Z,0.70
2022-09-27T17:34:34.411Z,0.90
2022-09-27T17:37:37.479Z,1.00
2022-09-27T17:40:40.849Z,0.87
2022-09-27T17:43:50.155Z,1.00
2022-09-27T17:47:13.248Z,1.03
2022-09-27T17:50:28.731Z,1.07
2022-09-27T17:53:35.503Z,1.17
2022-09-27T17:56:39.629Z,0.87
2022-09-27T17:59:44.456Z,0.90
2022-09-27T18:02:47.910Z,0.70
2022-09-27T18:05:51.128Z,0.60
2022-09-27T18:08:55.588Z,0.80
2022-09-27T18:11:58.535Z,0.30
2022-09-27T18:15:02.857Z,0.63
2022-09-27T18:18:06.000Z,1.00
2022-09-27T18:21:11.375Z,0.70
2022-09-27T18:24:14.796Z,0.60
2022-09-27T18:27:19.556Z,0.50
2022-09-27T18:30:24.021Z,0.63
2022-09-27T18:33:26.865Z,0.87
2022-09-27T18:36:30.461Z,0.97
2022-09-27T18:39:33.289Z,2.23
2022-09-27T18:42:36.166Z,1.27
2022-09-27T18:45:40.610Z,1.57
2022-09-27T18:48:43.588Z,1.00
2022-09-27T18:51:47.385Z,0.43
2022-09-27T18:54:50.451Z,0.70
2022-09-27T18:57:54.127Z,1.40
2022-09-27T19:01:01.492Z,0.70
2022-09-27T19:04:04.385Z,0.50
2022-09-27T19:07:08.122Z,1.30
2022-09-27T19:10:11.186Z,1.93
2022-09-27T19:13:14.244Z,1.47
2022-09-27T19:16:18.565Z,1.80
2022-09-27T19:19:22.121Z,1.27
2022-09-27T19:22:25.269Z,2.03
2022-09-27T19:25:28.125Z,0.70
2022-09-27T19:28:37.387Z,3.17
2022-09-27T19:31:42.752Z,0.90
2022-09-27T19:34:45.815Z,1.80
2022-09-27T19:37:49.459Z,0.80
2022-09-27T19:40:54.564Z,1.03
2022-09-27T19:43:58.201Z,0.60
2022-09-27T19:47:02.465Z,0.50
2022-09-27T19:50:05.703Z,0.77
2022-09-27T19:53:08.709Z,0.90
2022-09-27T19:56:12.388Z,0.50
2022-09-27T19:59:15.375Z,1.00
2022-09-27T20:02:19.811Z,0.50
2022-09-27T20:05:22.736Z,0.50
2022-09-27T20:08:25.949Z,1.00
2022-09-27T20:11:29.812Z,0.53
2022-09-27T20:14:32.763Z,0.77
2022-09-27T20:17:36.940Z,0.70
2022-09-27T20:20:39.741Z,0.50
2022-09-27T20:23:43.039Z,0.53
2022-09-27T20:26:46.588Z,0.50
2022-09-27T20:29:49.381Z,0.40
2022-09-27T20:33:08.599Z,0.40
2022-09-27T20:36:13.700Z,0.40
2022-09-27T20:39:17.038Z,0.40
2022-09-27T20:42:19.968Z,0.53
2022-09-27T20:45:22.896Z,0.47
2022-09-27T20:48:27.089Z,0.50
2022-09-27T20:51:33.348Z,0.50
2022-09-27T20:54:36.168Z,0.67
2022-09-27T20:57:56.460Z,0.47
2022-09-27T21:01:06.574Z,0.50
2022-09-27T21:04:11.271Z,0.40
2022-09-27T21:07:15.391Z,0.57
2022-09-27T21:10:18.468Z,0.83
2022-09-27T21:13:21.684Z,0.90
2022-09-27T21:16:26.483Z,0.90
2022-09-27T21:19:30.712Z,0.90
2022-09-27T21:22:34.518Z,0.50
2022-09-27T21:25:37.557Z,0.50
2022-09-27T21:28:42.226Z,0.50
2022-09-27T21:31:45.249Z,0.40
2022-09-27T21:34:49.424Z,0.30
2022-09-27T21:37:52.307Z,0.47
2022-09-27T21:40:56.532Z,0.43
2022-09-27T21:43:59.456Z,0.47
2022-09-27T21:47:02.669Z,0.60
2022-09-27T21:50:07.967Z,0.60
2022-09-27T21:53:10.796Z,0.33
2022-09-27T21:56:13.722Z,0.37
2022-09-27T21:59:18.199Z,0.70
2022-09-27T22:02:21.307Z,0.40
2022-09-27T22:05:25.541Z,0.80
2022-09-27T22:08:29.862Z,0.50
2022-09-27T22:11:34.662Z,0.30
2022-09-27T22:14:37.488Z,0.30
2022-09-27T22:17:40.323Z,0.20
2022-09-27T22:20:44.586Z,0.30
2022-09-27T22:23:47.684Z,0.30
2022-09-27T22:26:52.830Z,0.20
2022-09-27T22:29:55.622Z,0.23
2022-09-27T22:32:58.480Z,0.37
2022-09-27T22:36:03.408Z,0.40
2022-09-27T22:39:06.635Z,0.30
2022-09-27T22:42:09.466Z,0.40
2022-09-27T22:45:12.320Z,0.30
2022-09-27T22:48:15.138Z,0.60
2022-09-27T22:51:19.430Z,0.63
2022-09-27T22:54:22.239Z,0.30
2022-09-27T22:57:25.965Z,0.33
2022-09-27T23:00:29.455Z,0.20
2022-09-27T23:03:32.386Z,0.30
2022-09-27T23:06:38.956Z,0.37
2022-09-27T23:09:41.787Z,0.30
2022-09-27T23:12:44.899Z,0.20
2022-09-27T23:15:48.091Z,0.20
2022-09-27T23:18:53.846Z,0.30
2022-09-27T23:21:58.614Z,0.20
2022-09-27T23:25:01.801Z,0.23
2022-09-27T23:28:04.846Z,0.33
2022-09-27T23:31:08.983Z,0.67
2022-09-27T23:34:14.914Z,0.40
2022-09-27T23:37:19.299Z,0.60
2022-09-27T23:40:22.151Z,0.30
2022-09-27T23:43:25.024Z,0.30
2022-09-27T23:46:28.731Z,0.50
2022-09-27T23:49:32.145Z,0.40
2022-09-27T23:52:36.396Z,0.37
2022-09-27T23:55:39.218Z,0.30
2022-09-27T23:58:43.261Z,0.30
